Airfield :
LOGIN :

Register | Disclaimer

   EN    FR    IT 

 










Legend :    VFR   Marginal VFR   IFR   Intensive IFR   Very Intensive IFR
Visi :
Ceiling :
>= 8 km
>= 3000ft
5 to 8 km
1000 to 3000 ft
1500m to 5 km
500 to 1000 ft
800 to 1500m
200 to 500 ft
< 800m
< 200 ft
Symbols :   Thunderstorms  Fog  Heavy snow  Heavy precipitations  Wind > 20 kt
SIGMETs :     Misc.  Thunderstorms  Icing  Turbulence  Mountain Waves  Volcanic Ashes







- Airport Elevation : 1487 ft
- IATA code : MUC


EDDM - München Franz Josef Strauss

CURRENT METAR :
  • 251420Z 23004KT 200V270 9999 -RA FEW010 FEW045TCU OVC060 11/08 Q1007 BECMG 31005KT RA

EXPIRED METARs :
  • 251350Z 25005KT 230V300 9999 SHRA FEW015 FEW045TCU OVC060 12/08 Q1007 BECMG NSW
  • 251320Z 29004KT 260V330 9999 SHRA FEW020 FEW045TCU OVC060 12/07 Q1007 BECMG NSW
  • 251250Z 28005KT 160V320 9999 -SHRA FEW014 FEW050TCU OVC070 12/07 Q1007 RERA TEMPO SHRA
  • 251220Z 28006KT 250V310 9999 SHRA FEW020 FEW050CB BKN070 11/07 Q1007 BECMG NSW
  • 251150Z 28005KT 240V300 9999 -SHRA FEW025 FEW050CB BKN080 12/07 Q1008 TEMPO 26015G25KT 4000 SHRA BKN020CB

TAF TAF EDDM
Valid from the 25 at 12:00 until the 26 at 18:00 UTC


251100Z 2512/2618 26010KT 9999 SCT020 BKN040
TEMPO 2512/2515 26015G25KT 4000 SHRA BKN020CB
PROB30
TEMPO 2513/2515 TSRA
BECMG 2515/2517 32008KT
BECMG 2518/2520 02005KT RA BKN012
TEMPO 2520/2608 2500 RADZ BKN004
PROB30
TEMPO 2604/2607 RASN
BECMG 2607/2609 32010KT
BECMG 2616/2618 NSW
No reported NOTAMs for that airfield.
1 SIGMET reported for the München FIR (EDMM) :
 
Embedded thunderstorms
EDMM SIGMET 1 VALID 251256/251500 EDZM
EDMM MUNCHEN FIR EMBD TS OBS S OF N49 AND W OF E011 TOP FL240 STNR WKN=



MET'MAP, your aeronautical weather chart ! - Copyright ORBIFLY December 2007 - Disclaimer

ORBIFLY MET'MAP TEAM :

Programming & Development : Alexandra Zaïnal
Concept & Development : Baudouin d'Aumeries
Co-Development & Prog : Marc-Olivier Méhu
Technical & hardware support : Manuel Goepfert

Contact : metmap@orbifly.com




SOURCES & CREDITS :

   NOAA